sensor_id;sensor_type;location;lat;lon;timestamp;P1;durP1;ratioP1;P2;durP2;ratioP2
2884;SDS011;54691;48.262;11.586;2023-08-06T00:02:07;14.35;;;5.10;;
2884;SDS011;54691;48.262;11.586;2023-08-06T00:09:04;7.85;;;3.83;;
2884;SDS011;54691;48.262;11.586;2023-08-06T00:16:11;10.60;;;4.78;;
2884;SDS011;54691;48.262;11.586;2023-08-06T00:19:40;8.70;;;3.80;;
2884;SDS011;54691;48.262;11.586;2023-08-06T00:26:37;8.83;;;3.17;;
2884;SDS011;54691;48.262;11.586;2023-08-06T00:33:37;7.00;;;3.17;;
2884;SDS011;54691;48.262;11.586;2023-08-06T00:40:43;12.43;;;3.15;;
2884;SDS011;54691;48.262;11.586;2023-08-06T00:44:13;6.90;;;3.70;;
2884;SDS011;54691;48.262;11.586;2023-08-06T00:51:12;10.35;;;3.02;;
2884;SDS011;54691;48.262;11.586;2023-08-06T01:01:49;6.97;;;2.77;;
2884;SDS011;54691;48.262;11.586;2023-08-06T01:09:02;5.80;;;3.00;;
2884;SDS011;54691;48.262;11.586;2023-08-06T01:12:51;8.65;;;2.87;;
2884;SDS011;54691;48.262;11.586;2023-08-06T01:16:25;3.40;;;2.08;;
2884;SDS011;54691;48.262;11.586;2023-08-06T01:23:23;7.03;;;2.30;;
2884;SDS011;54691;48.262;11.586;2023-08-06T01:31:07;5.22;;;2.27;;
2884;SDS011;54691;48.262;11.586;2023-08-06T01:41:41;5.55;;;2.95;;
2884;SDS011;54691;48.262;11.586;2023-08-06T01:48:48;5.75;;;2.80;;
2884;SDS011;54691;48.262;11.586;2023-08-06T01:55:49;6.03;;;3.10;;
2884;SDS011;54691;48.262;11.586;2023-08-06T01:59:25;7.70;;;3.40;;
2884;SDS011;54691;48.262;11.586;2023-08-06T02:09:57;7.40;;;2.87;;
2884;SDS011;54691;48.262;11.586;2023-08-06T02:16:54;6.55;;;3.05;;
2884;SDS011;54691;48.262;11.586;2023-08-06T02:23:51;6.97;;;3.08;;
2884;SDS011;54691;48.262;11.586;2023-08-06T02:30:51;6.78;;;3.85;;
2884;SDS011;54691;48.262;11.586;2023-08-06T02:37:51;6.42;;;3.35;;
2884;SDS011;54691;48.262;11.586;2023-08-06T02:44:53;7.20;;;3.52;;
2884;SDS011;54691;48.262;11.586;2023-08-06T02:51:52;7.90;;;3.40;;
2884;SDS011;54691;48.262;11.586;2023-08-06T02:58:55;4.50;;;2.70;;
2884;SDS011;54691;48.262;11.586;2023-08-06T03:20:08;13.13;;;3.55;;
2884;SDS011;54691;48.262;11.586;2023-08-06T03:23:46;6.50;;;3.20;;
2884;SDS011;54691;48.262;11.586;2023-08-06T03:37:50;7.30;;;2.62;;
2884;SDS011;54691;48.262;11.586;2023-08-06T03:44:49;4.55;;;2.10;;
2884;SDS011;54691;48.262;11.586;2023-08-06T03:51:50;4.15;;;2.35;;
2884;SDS011;54691;48.262;11.586;2023-08-06T03:58:50;6.15;;;3.22;;
2884;SDS011;54691;48.262;11.586;2023-08-06T04:05:49;5.55;;;2.40;;
2884;SDS011;54691;48.262;11.586;2023-08-06T04:16:24;4.15;;;2.05;;
2884;SDS011;54691;48.262;11.586;2023-08-06T04:26:56;3.20;;;1.80;;
2884;SDS011;54691;48.262;11.586;2023-08-06T04:37:32;8.28;;;2.12;;
2884;SDS011;54691;48.262;11.586;2023-08-06T04:44:43;6.30;;;1.80;;
2884;SDS011;54691;48.262;11.586;2023-08-06T04:51:43;2.75;;;1.35;;
2884;SDS011;54691;48.262;11.586;2023-08-06T04:58:40;2.85;;;1.30;;
2884;SDS011;54691;48.262;11.586;2023-08-06T05:02:18;7.00;;;1.20;;
2884;SDS011;54691;48.262;11.586;2023-08-06T05:12:54;5.90;;;1.55;;
2884;SDS011;54691;48.262;11.586;2023-08-06T05:16:24;2.20;;;1.30;;
2884;SDS011;54691;48.262;11.586;2023-08-06T05:20:34;2.22;;;1.00;;
2884;SDS011;54691;48.262;11.586;2023-08-06T05:24:26;2.47;;;1.05;;
2884;SDS011;54691;48.262;11.586;2023-08-06T05:28:04;1.60;;;0.80;;
2884;SDS011;54691;48.262;11.586;2023-08-06T05:31:40;1.90;;;1.00;;
2884;SDS011;54691;48.262;11.586;2023-08-06T05:38:42;2.70;;;1.80;;
2884;SDS011;54691;48.262;11.586;2023-08-06T05:45:49;2.45;;;1.42;;
2884;SDS011;54691;48.262;11.586;2023-08-06T05:49:19;1.83;;;1.00;;
2884;SDS011;54691;48.262;11.586;2023-08-06T06:03:31;3.05;;;1.30;;
2884;SDS011;54691;48.262;11.586;2023-08-06T06:17:36;6.20;;;1.60;;
2884;SDS011;54691;48.262;11.586;2023-08-06T06:24:33;0.90;;;0.80;;
2884;SDS011;54691;48.262;11.586;2023-08-06T06:31:30;1.80;;;0.98;;
2884;SDS011;54691;48.262;11.586;2023-08-06T06:38:27;4.17;;;1.10;;
2884;SDS011;54691;48.262;11.586;2023-08-06T06:45:24;1.52;;;1.00;;
2884;SDS011;54691;48.262;11.586;2023-08-06T06:52:21;2.42;;;1.05;;
2884;SDS011;54691;48.262;11.586;2023-08-06T06:59:18;1.22;;;0.68;;
2884;SDS011;54691;48.262;11.586;2023-08-06T07:06:15;1.77;;;0.80;;
2884;SDS011;54691;48.262;11.586;2023-08-06T07:13:14;6.78;;;0.93;;
2884;SDS011;54691;48.262;11.586;2023-08-06T07:20:15;0.60;;;0.60;;
2884;SDS011;54691;48.262;11.586;2023-08-06T07:27:12;0.68;;;0.53;;
2884;SDS011;54691;48.262;11.586;2023-08-06T07:34:10;0.93;;;0.40;;
2884;SDS011;54691;48.262;11.586;2023-08-06T07:41:08;1.87;;;0.30;;
2884;SDS011;54691;48.262;11.586;2023-08-06T07:48:05;1.00;;;0.50;;
2884;SDS011;54691;48.262;11.586;2023-08-06T07:55:02;2.52;;;1.20;;
2884;SDS011;54691;48.262;11.586;2023-08-06T08:02:00;0.93;;;0.60;;
2884;SDS011;54691;48.262;11.586;2023-08-06T08:08:57;1.37;;;0.53;;
2884;SDS011;54691;48.262;11.586;2023-08-06T08:15:58;0.65;;;0.30;;
2884;SDS011;54691;48.262;11.586;2023-08-06T08:26:25;2.10;;;0.42;;
2884;SDS011;54691;48.262;11.586;2023-08-06T08:33:23;1.40;;;0.33;;
2884;SDS011;54691;48.262;11.586;2023-08-06T08:40:20;1.95;;;0.80;;
2884;SDS011;54691;48.262;11.586;2023-08-06T08:47:22;0.23;;;0.23;;
2884;SDS011;54691;48.262;11.586;2023-08-06T08:54:21;0.50;;;0.40;;
2884;SDS011;54691;48.262;11.586;2023-08-06T09:01:20;0.95;;;0.50;;
2884;SDS011;54691;48.262;11.586;2023-08-06T09:08:18;0.68;;;0.45;;
2884;SDS011;54691;48.262;11.586;2023-08-06T09:15:17;1.95;;;0.50;;
2884;SDS011;54691;48.262;11.586;2023-08-06T09:22:14;1.37;;;0.30;;
2884;SDS011;54691;48.262;11.586;2023-08-06T09:29:11;0.70;;;0.28;;
2884;SDS011;54691;48.262;11.586;2023-08-06T09:52:01;1.27;;;0.20;;
2884;SDS011;54691;48.262;11.586;2023-08-06T10:03:31;2.10;;;0.30;;
2884;SDS011;54691;48.262;11.586;2023-08-06T10:07:05;1.00;;;0.20;;
2884;SDS011;54691;48.262;11.586;2023-08-06T10:10:44;2.83;;;0.20;;
2884;SDS011;54691;48.262;11.586;2023-08-06T10:26:16;0.30;;;0.30;;
2884;SDS011;54691;48.262;11.586;2023-08-06T10:37:45;0.45;;;0.20;;
2884;SDS011;54691;48.262;11.586;2023-08-06T10:45:36;1.20;;;0.20;;
2884;SDS011;54691;48.262;11.586;2023-08-06T11:05:49;0.37;;;0.17;;
2884;SDS011;54691;48.262;11.586;2023-08-06T11:09:40;0.72;;;0.20;;
2884;SDS011;54691;48.262;11.586;2023-08-06T11:16:45;0.20;;;0.20;;
2884;SDS011;54691;48.262;11.586;2023-08-06T11:24:33;0.30;;;0.10;;
2884;SDS011;54691;48.262;11.586;2023-08-06T11:28:10;0.42;;;0.10;;
2884;SDS011;54691;48.262;11.586;2023-08-06T11:35:30;1.10;;;0.10;;
2884;SDS011;54691;48.262;11.586;2023-08-06T11:39:17;0.23;;;0.23;;
2884;SDS011;54691;48.262;11.586;2023-08-06T11:47:18;0.20;;;0.20;;
2884;SDS011;54691;48.262;11.586;2023-08-06T11:58:23;0.20;;;0.20;;
2884;SDS011;54691;48.262;11.586;2023-08-06T12:02:16;0.20;;;0.20;;
2884;SDS011;54691;48.262;11.586;2023-08-06T12:20:53;0.10;;;0.10;;
2884;SDS011;54691;48.262;11.586;2023-08-06T12:24:51;0.20;;;0.10;;
2884;SDS011;54691;48.262;11.586;2023-08-06T12:28:32;0.10;;;0.10;;
2884;SDS011;54691;48.262;11.586;2023-08-06T12:35:47;0.85;;;0.23;;
2884;SDS011;54691;48.262;11.586;2023-08-06T12:50:27;2.20;;;0.20;;
2884;SDS011;54691;48.262;11.586;2023-08-06T13:07:12;0.35;;;0.20;;
2884;SDS011;54691;48.262;11.586;2023-08-06T13:25:55;0.10;;;0.10;;
2884;SDS011;54691;48.262;11.586;2023-08-06T13:34:13;0.10;;;0.10;;
2884;SDS011;54691;48.262;11.586;2023-08-06T13:42:07;0.10;;;0.10;;
2884;SDS011;54691;48.262;11.586;2023-08-06T13:45:45;0.25;;;0.20;;
2884;SDS011;54691;48.262;11.586;2023-08-06T13:59:57;0.20;;;0.20;;
2884;SDS011;54691;48.262;11.586;2023-08-06T14:07:00;1.67;;;0.20;;
2884;SDS011;54691;48.262;11.586;2023-08-06T14:13:53;0.17;;;0.17;;
2884;SDS011;54691;48.262;11.586;2023-08-06T14:20:50;0.20;;;0.20;;
2884;SDS011;54691;48.262;11.586;2023-08-06T14:31:25;0.20;;;0.20;;
2884;SDS011;54691;48.262;11.586;2023-08-06T14:35:02;3.90;;;0.30;;
2884;SDS011;54691;48.262;11.586;2023-08-06T17:13:02;0.20;;;0.20;;
2884;SDS011;54691;48.262;11.586;2023-08-06T17:59:05;0.45;;;0.30;;
2884;SDS011;54691;48.262;11.586;2023-08-06T18:07:40;0.30;;;0.30;;
2884;SDS011;54691;48.262;11.586;2023-08-06T18:15:09;0.70;;;0.20;;
2884;SDS011;54691;48.262;11.586;2023-08-06T18:22:30;1.85;;;0.50;;
2884;SDS011;54691;48.262;11.586;2023-08-06T18:26:09;1.30;;;0.70;;
2884;SDS011;54691;48.262;11.586;2023-08-06T18:30:00;2.77;;;0.60;;
2884;SDS011;54691;48.262;11.586;2023-08-06T18:33:45;1.82;;;0.40;;
2884;SDS011;54691;48.262;11.586;2023-08-06T18:41:01;0.70;;;0.50;;
2884;SDS011;54691;48.262;11.586;2023-08-06T18:44:43;1.95;;;0.60;;
2884;SDS011;54691;48.262;11.586;2023-08-06T19:18:58;3.20;;;0.40;;
2884;SDS011;54691;48.262;11.586;2023-08-06T19:22:40;1.85;;;0.68;;
2884;SDS011;54691;48.262;11.586;2023-08-06T19:37:51;0.80;;;0.70;;
2884;SDS011;54691;48.262;11.586;2023-08-06T20:00:33;3.25;;;0.72;;
2884;SDS011;54691;48.262;11.586;2023-08-06T20:09:34;1.10;;;0.60;;
2884;SDS011;54691;48.262;11.586;2023-08-06T20:13:18;0.53;;;0.40;;
2884;SDS011;54691;48.262;11.586;2023-08-06T20:21:43;0.80;;;0.35;;
2884;SDS011;54691;48.262;11.586;2023-08-06T20:30:39;0.85;;;0.50;;
2884;SDS011;54691;48.262;11.586;2023-08-06T20:38:47;0.47;;;0.40;;
2884;SDS011;54691;48.262;11.586;2023-08-06T20:50:10;0.60;;;0.40;;
2884;SDS011;54691;48.262;11.586;2023-08-06T20:58:03;0.50;;;0.40;;
2884;SDS011;54691;48.262;11.586;2023-08-06T21:05:23;0.55;;;0.55;;
2884;SDS011;54691;48.262;11.586;2023-08-06T21:09:11;5.78;;;0.50;;
2884;SDS011;54691;48.262;11.586;2023-08-06T21:12:46;1.00;;;0.50;;
2884;SDS011;54691;48.262;11.586;2023-08-06T21:20:12;0.80;;;0.50;;
2884;SDS011;54691;48.262;11.586;2023-08-06T21:48:12;1.42;;;0.60;;
2884;SDS011;54691;48.262;11.586;2023-08-06T21:51:53;5.08;;;0.72;;
2884;SDS011;54691;48.262;11.586;2023-08-06T21:55:36;3.80;;;0.40;;
2884;SDS011;54691;48.262;11.586;2023-08-06T21:59:24;3.17;;;1.00;;
2884;SDS011;54691;48.262;11.586;2023-08-06T22:19:48;1.40;;;0.50;;
2884;SDS011;54691;48.262;11.586;2023-08-06T22:24:08;1.53;;;0.80;;
2884;SDS011;54691;48.262;11.586;2023-08-06T22:35:44;3.15;;;0.90;;
2884;SDS011;54691;48.262;11.586;2023-08-06T22:39:31;0.45;;;0.40;;
2884;SDS011;54691;48.262;11.586;2023-08-06T22:51:20;1.57;;;0.60;;
2884;SDS011;54691;48.262;11.586;2023-08-06T23:00:58;0.53;;;0.50;;
2884;SDS011;54691;48.262;11.586;2023-08-06T23:04:43;0.98;;;0.60;;
2884;SDS011;54691;48.262;11.586;2023-08-06T23:08:39;4.30;;;0.60;;
2884;SDS011;54691;48.262;11.586;2023-08-06T23:12:15;3.22;;;0.57;;
2884;SDS011;54691;48.262;11.586;2023-08-06T23:15:43;1.10;;;0.40;;
2884;SDS011;54691;48.262;11.586;2023-08-06T23:27:23;4.83;;;0.70;;
2884;SDS011;54691;48.262;11.586;2023-08-06T23:31:05;0.93;;;0.50;;
2884;SDS011;54691;48.262;11.586;2023-08-06T23:38:46;0.55;;;0.40;;
2884;SDS011;54691;48.262;11.586;2023-08-06T23:46:29;2.25;;;0.40;;
2884;SDS011;54691;48.262;11.586;2023-08-06T23:49:54;0.77;;;0.40;;
2884;SDS011;54691;48.262;11.586;2023-08-06T23:57:51;0.78;;;0.60;;
